Time;durP1;ratioP1;P1;durP2;ratioP2;P2;SDS_P1;SDS_P2;PMS_P1;PMS_P2;Temp;Humidity;BMP_temperature;BMP_pressure;BME280_temperature;BME280_humidity;BME280_pressure;Samples;Min_cycle;Max_cycle;Signal;HPM_P1;HPM_P2
2021/04/25 00:02:24;;;;;;;17.98;13.35;;;25.70;34.00;;;;;;5084488;28;20032;-57
2021/04/25 00:04:50;;;;;;;17.90;13.13;;;25.70;34.00;;;;;;5091318;28;20451;-55
2021/04/25 00:07:16;;;;;;;18.75;13.25;;;25.70;34.00;;;;;;5097979;28;20032;-56
2021/04/25 00:09:42;;;;;;;16.83;12.50;;;25.70;34.00;;;;;;5084753;28;20040;-52
2021/04/25 00:12:09;;;;;;;18.05;13.48;;;25.70;34.00;;;;;;5082211;28;20036;-54
2021/04/25 00:14:34;;;;;;;16.88;12.45;;;25.70;33.90;;;;;;5084128;28;20024;-51
2021/04/25 00:17:00;;;;;;;16.92;12.55;;;25.70;33.90;;;;;;5082373;28;20328;-54
2021/04/25 00:19:26;;;;;;;18.25;13.48;;;25.70;33.90;;;;;;5082430;28;20050;-54
2021/04/25 00:21:51;;;;;;;17.95;13.18;;;25.70;33.90;;;;;;5082148;28;20074;-53
2021/04/25 00:24:17;;;;;;;18.45;13.38;;;25.70;33.90;;;;;;5082879;28;20883;-54
2021/04/25 00:26:43;;;;;;;19.13;12.55;;;25.70;33.90;;;;;;5084343;28;20036;-54
2021/04/25 00:29:08;;;;;;;17.25;12.30;;;25.70;33.90;;;;;;5084453;28;20024;-53
2021/04/25 00:31:34;;;;;;;19.17;12.82;;;25.70;33.90;;;;;;5091327;28;20032;-54
2021/04/25 00:34:00;;;;;;;18.25;12.85;;;25.70;34.40;;;;;;5067881;28;20108;-52
2021/04/25 00:36:26;;;;;;;16.83;12.70;;;25.70;33.90;;;;;;5080556;28;20107;-54
2021/04/25 00:38:54;;;;;;;16.40;11.80;;;25.70;33.90;;;;;;5081740;28;20558;-54
2021/04/25 00:41:19;;;;;;;17.35;12.23;;;25.70;33.90;;;;;;5082836;28;20027;-56
2021/04/25 00:43:45;;;;;;;14.60;11.50;;;25.70;33.90;;;;;;5079827;28;20441;-53
2021/04/25 00:46:11;;;;;;;16.63;12.05;;;25.70;33.90;;;;;;5081418;28;20028;-55
2021/04/25 00:48:36;;;;;;;17.10;11.95;;;25.70;33.90;;;;;;5082509;28;20107;-53
2021/04/25 00:51:06;;;;;;;16.50;11.63;;;25.70;33.90;;;;;;5083038;28;20122;-56
2021/04/25 00:53:32;;;;;;;14.95;11.15;;;25.70;33.90;;;;;;5081447;28;20168;-54
2021/04/25 00:55:58;;;;;;;15.30;11.40;;;25.70;33.90;;;;;;5082650;28;20107;-56
2021/04/25 00:58:24;;;;;;;15.43;11.85;;;25.70;33.90;;;;;;5083866;28;20324;-56
2021/04/25 01:00:49;;;;;;;14.90;11.45;;;25.70;33.90;;;;;;5079208;28;20047;-53
2021/04/25 01:03:19;;;;;;;15.95;11.23;;;25.70;33.90;;;;;;5069797;28;20358;-52
2021/04/25 01:05:45;;;;;;;16.02;11.70;;;25.70;33.90;;;;;;5082365;28;20378;-53
2021/04/25 01:08:11;;;;;;;14.43;11.00;;;25.70;33.80;;;;;;5086211;28;20032;-58
2021/04/25 01:10:37;;;;;;;13.40;10.25;;;25.70;33.80;;;;;;5087486;28;20131;-54
2021/04/25 01:13:03;;;;;;;15.05;10.77;;;25.70;33.70;;;;;;5083930;28;20146;-54
2021/04/25 01:15:29;;;;;;;15.52;10.95;;;25.80;33.80;;;;;;5085221;28;20034;-57
2021/04/25 01:17:55;;;;;;;13.40;10.07;;;25.80;33.70;;;;;;5085395;28;20024;-54
2021/04/25 01:20:22;;;;;;;12.80;9.95;;;25.80;33.70;;;;;;5085052;28;20039;-50
2021/04/25 01:22:48;;;;;;;13.70;10.20;;;25.80;33.90;;;;;;5085337;28;20151;-53
2021/04/25 01:25:17;;;;;;;14.45;10.10;;;25.70;33.70;;;;;;5083076;28;20185;-53
2021/04/25 01:27:43;;;;;;;14.10;10.40;;;25.70;33.80;;;;;;5061119;28;20021;-49
2021/04/25 01:30:12;;;;;;;12.70;9.50;;;25.70;33.90;;;;;;5078098;28;20028;-53
2021/04/25 01:32:40;;;;;;;11.75;9.18;;;25.70;33.90;;;;;;5084818;28;20088;-54
2021/04/25 01:35:07;;;;;;;11.88;8.95;;;25.70;33.90;;;;;;5077375;28;20036;-53
2021/04/25 01:37:32;;;;;;;12.60;9.45;;;25.60;33.90;;;;;;5083280;28;20536;-57
2021/04/25 01:39:58;;;;;;;14.40;9.80;;;25.60;33.90;;;;;;5085069;28;20062;-56
2021/04/25 01:42:24;;;;;;;12.38;9.65;;;25.60;33.90;;;;;;5086887;28;20039;-51
2021/04/25 01:44:49;;;;;;;12.40;9.07;;;25.60;33.90;;;;;;5086723;28;20492;-53
2021/04/25 01:47:15;;;;;;;12.35;9.13;;;25.60;34.00;;;;;;5086483;28;20103;-53
2021/04/25 01:49:41;;;;;;;11.82;8.60;;;25.50;33.90;;;;;;5086038;28;20028;-53
2021/04/25 01:52:06;;;;;;;11.90;9.35;;;25.50;33.90;;;;;;5076032;28;20024;-55
2021/04/25 01:54:32;;;;;;;13.05;9.13;;;25.50;34.00;;;;;;5083763;28;20083;-54
2021/04/25 01:56:57;;;;;;;12.43;9.13;;;25.40;33.90;;;;;;5086287;28;20032;-52
2021/04/25 01:59:23;;;;;;;11.70;8.98;;;25.40;33.90;;;;;;5085343;28;20059;-54
2021/04/25 02:01:49;;;;;;;12.07;8.73;;;25.40;33.90;;;;;;5082258;28;20051;-54
2021/04/25 02:04:15;;;;;;;11.48;8.65;;;25.40;33.90;;;;;;5079723;28;20043;-56
2021/04/25 02:06:43;;;;;;;12.30;8.77;;;25.40;33.90;;;;;;5064324;28;20033;-56
2021/04/25 02:09:10;;;;;;;11.80;8.65;;;25.40;33.90;;;;;;5071936;28;20019;-55
2021/04/25 02:11:36;;;;;;;10.88;8.45;;;25.40;34.00;;;;;;5079884;28;20028;-56
2021/04/25 02:14:04;;;;;;;10.25;7.90;;;25.40;34.00;;;;;;5083850;28;20132;-56
2021/04/25 02:16:30;;;;;;;10.57;7.82;;;25.30;33.90;;;;;;5084612;28;20351;-54
2021/04/25 02:18:55;;;;;;;11.38;8.13;;;25.30;33.90;;;;;;5085426;28;20035;-53
2021/04/25 02:21:21;;;;;;;11.50;8.68;;;25.30;34.00;;;;;;5084978;28;20404;-53
2021/04/25 02:23:47;;;;;;;11.10;8.25;;;25.20;33.90;;;;;;5083853;28;20333;-53
2021/04/25 02:26:12;;;;;;;11.43;7.85;;;25.30;33.90;;;;;;5084614;28;20038;-58
2021/04/25 02:28:38;;;;;;;10.63;8.13;;;25.20;33.90;;;;;;5086072;28;20024;-54
2021/04/25 02:31:03;;;;;;;11.13;8.10;;;25.20;33.90;;;;;;5085045;28;20141;-54
2021/04/25 02:33:29;;;;;;;10.63;8.25;;;25.20;33.90;;;;;;5083611;28;20024;-59
2021/04/25 02:35:55;;;;;;;11.32;8.52;;;25.10;33.90;;;;;;5083299;28;20046;-51
2021/04/25 02:38:20;;;;;;;11.50;7.70;;;25.10;33.80;;;;;;5075451;28;20089;-51
2021/04/25 02:40:46;;;;;;;10.00;8.23;;;25.10;33.90;;;;;;5084429;28;20028;-51
2021/04/25 02:43:12;;;;;;;10.90;8.00;;;25.10;33.90;;;;;;5072551;28;20032;-56
2021/04/25 02:45:37;;;;;;;10.45;7.57;;;25.10;34.00;;;;;;5082878;28;20039;-54
2021/04/25 02:48:06;;;;;;;10.35;7.88;;;25.10;34.00;;;;;;5081156;28;20627;-54
2021/04/25 02:50:35;;;;;;;10.88;7.72;;;25.00;33.90;;;;;;5088389;28;20473;-54
2021/04/25 02:53:01;;;;;;;;;;;25.00;34.00;;;;;;5087658;28;20055;-54
2021/04/25 02:55:27;;;;;;;10.75;7.80;;;25.00;34.00;;;;;;5086603;28;19915;-57
2021/04/25 02:57:53;;;;;;;10.63;7.85;;;25.00;34.00;;;;;;5076844;28;20667;-55
2021/04/25 03:00:22;;;;;;;10.18;8.07;;;25.00;34.00;;;;;;5074162;28;20028;-52
2021/04/25 03:02:48;;;;;;;10.65;7.85;;;24.90;34.00;;;;;;5088128;28;20051;-52
2021/04/25 03:05:14;;;;;;;9.80;7.32;;;24.90;34.00;;;;;;5077274;28;20420;-52
2021/04/25 03:07:40;;;;;;;10.32;7.47;;;24.90;34.00;;;;;;5088226;28;20028;-53
2021/04/25 03:10:07;;;;;;;10.23;7.20;;;24.80;34.00;;;;;;5087676;28;20024;-56
2021/04/25 03:12:33;;;;;;;10.23;7.60;;;24.80;34.10;;;;;;5088539;28;20031;-52
2021/04/25 03:14:59;;;;;;;9.10;7.22;;;24.80;34.60;;;;;;5088807;28;20472;-52
2021/04/25 03:17:25;;;;;;;9.50;7.70;;;24.80;34.10;;;;;;5087423;28;20088;-55
2021/04/25 03:19:51;;;;;;;9.15;7.30;;;24.80;34.10;;;;;;5088575;28;20031;-53
2021/04/25 03:22:16;;;;;;;9.50;6.95;;;24.80;34.10;;;;;;5082375;28;20420;-54
2021/04/25 03:24:42;;;;;;;9.23;6.82;;;24.70;34.60;;;;;;5086770;28;20024;-57
2021/04/25 03:27:08;;;;;;;9.55;6.95;;;24.70;34.10;;;;;;5087327;28;20036;-51
2021/04/25 03:29:33;;;;;;;9.45;7.07;;;24.70;34.20;;;;;;5089986;28;20466;-49
2021/04/25 03:31:59;;;;;;;9.38;7.00;;;24.70;34.20;;;;;;5081225;28;20118;-52
2021/04/25 03:34:25;;;;;;;8.90;6.80;;;24.70;34.20;;;;;;5088026;28;20043;-53
2021/04/25 03:36:50;;;;;;;9.40;6.88;;;24.60;34.20;;;;;;5084077;28;20038;-51
2021/04/25 03:39:16;;;;;;;10.15;7.28;;;24.60;34.20;;;;;;5087581;28;20040;-52
2021/04/25 03:41:41;;;;;;;9.73;7.25;;;24.60;34.30;;;;;;5087267;28;20039;-52
2021/04/25 03:44:08;;;;;;;10.25;7.40;;;24.60;34.80;;;;;;5083051;28;20028;-49
2021/04/25 03:46:34;;;;;;;8.57;6.78;;;24.60;34.20;;;;;;5087589;28;20024;-55
2021/04/25 03:49:00;;;;;;;9.30;6.93;;;24.60;34.30;;;;;;5086402;28;20035;-53
2021/04/25 03:51:25;;;;;;;9.20;6.68;;;24.50;34.20;;;;;;5084992;28;20027;-53
2021/04/25 03:53:51;;;;;;;8.57;6.47;;;24.50;34.20;;;;;;5077128;28;20089;-55
2021/04/25 03:56:16;;;;;;;8.75;6.35;;;24.50;34.30;;;;;;5070171;28;20033;-54
2021/04/25 03:58:42;;;;;;;9.18;6.88;;;24.50;34.30;;;;;;5067880;28;20043;-52
2021/04/25 04:01:08;;;;;;;9.02;6.30;;;24.50;34.30;;;;;;5061660;28;20032;-58
2021/04/25 04:03:33;;;;;;;9.05;6.80;;;24.50;34.30;;;;;;5085863;28;20043;-53
2021/04/25 04:05:59;;;;;;;9.73;7.20;;;24.50;34.30;;;;;;5085418;28;20115;-55
2021/04/25 04:08:24;;;;;;;9.10;6.63;;;24.40;34.30;;;;;;5086625;28;20024;-56
2021/04/25 04:10:50;;;;;;;7.85;6.10;;;24.40;34.30;;;;;;5087594;28;20471;-50
2021/04/25 04:13:16;;;;;;;8.23;6.28;;;24.40;34.30;;;;;;5086635;28;20028;-53
2021/04/25 04:15:41;;;;;;;8.27;6.65;;;24.40;34.40;;;;;;5088037;28;20028;-51
2021/04/25 04:18:07;;;;;;;8.65;6.35;;;24.40;34.40;;;;;;5087105;28;20475;-52
2021/04/25 04:20:33;;;;;;;9.23;6.47;;;24.40;34.50;;;;;;5082093;28;20024;-54
2021/04/25 04:22:58;;;;;;;8.15;6.15;;;24.30;34.40;;;;;;5081928;28;20093;-51
2021/04/25 04:25:24;;;;;;;8.23;6.20;;;24.30;34.40;;;;;;5086223;28;20044;-53
2021/04/25 04:27:49;;;;;;;7.55;5.88;;;24.30;34.40;;;;;;5083504;28;20498;-58
2021/04/25 04:30:15;;;;;;;7.82;5.65;;;24.30;34.40;;;;;;5075943;28;20016;-53
2021/04/25 04:32:41;;;;;;;8.27;6.30;;;24.30;34.50;;;;;;5085254;28;20100;-51
2021/04/25 04:35:07;;;;;;;8.13;6.28;;;24.30;34.40;;;;;;5072107;28;20038;-50
2021/04/25 04:37:33;;;;;;;8.23;6.10;;;24.30;34.50;;;;;;5081247;28;20043;-52
2021/04/25 04:39:59;;;;;;;8.88;6.03;;;24.20;34.40;;;;;;5085857;28;20028;-55
2021/04/25 04:42:24;;;;;;;8.10;5.82;;;24.20;34.50;;;;;;5086209;28;20032;-53
2021/04/25 04:44:50;;;;;;;7.40;5.50;;;24.20;34.50;;;;;;5081721;28;20055;-56
2021/04/25 04:47:16;;;;;;;7.05;5.82;;;24.20;34.50;;;;;;5086527;28;20036;-55
2021/04/25 04:49:41;;;;;;;8.15;5.65;;;24.20;34.50;;;;;;5087203;28;20028;-50
2021/04/25 04:52:07;;;;;;;6.63;5.25;;;24.20;34.50;;;;;;5084403;28;20546;-54
2021/04/25 04:54:33;;;;;;;7.28;5.05;;;24.20;34.50;;;;;;5086205;28;20032;-52
2021/04/25 04:56:59;;;;;;;7.13;5.28;;;24.10;34.50;;;;;;5088662;28;20486;-57
2021/04/25 04:59:24;;;;;;;7.63;5.75;;;24.10;34.50;;;;;;5088246;28;20020;-56
2021/04/25 05:01:50;;;;;;;7.10;5.15;;;24.10;34.50;;;;;;5085506;28;20047;-57
2021/04/25 05:04:16;;;;;;;7.32;5.00;;;24.10;34.60;;;;;;5086449;28;20027;-56
2021/04/25 05:06:41;;;;;;;7.47;5.40;;;24.10;34.60;;;;;;5087237;28;20050;-53
2021/04/25 05:09:07;;;;;;;7.93;5.70;;;24.10;34.60;;;;;;5086792;28;20035;-54
2021/04/25 05:11:33;;;;;;;7.90;5.55;;;24.10;34.70;;;;;;5086432;28;20134;-53
2021/04/25 05:13:58;;;;;;;7.10;5.28;;;24.10;34.70;;;;;;5085690;28;20402;-52
2021/04/25 05:16:24;;;;;;;6.57;5.03;;;24.00;34.60;;;;;;5088243;28;20044;-57
2021/04/25 05:18:49;;;;;;;7.53;5.43;;;24.00;34.70;;;;;;5069531;28;20382;-52
2021/04/25 05:21:15;;;;;;;6.53;5.20;;;24.00;34.60;;;;;;5085274;28;20027;-56
2021/04/25 05:23:41;;;;;;;6.50;4.90;;;24.00;34.70;;;;;;5075537;28;20543;-56
2021/04/25 05:26:06;;;;;;;6.85;4.70;;;24.00;34.70;;;;;;5085132;28;20082;-51
2021/04/25 05:28:32;;;;;;;6.10;4.75;;;24.00;34.70;;;;;;5084625;28;20036;-54
2021/04/25 05:31:00;;;;;;;7.00;4.97;;;23.90;34.70;;;;;;5079161;28;20036;-53
2021/04/25 05:33:26;;;;;;;6.35;4.90;;;23.90;34.70;;;;;;5081465;28;20360;-52
2021/04/25 05:35:51;;;;;;;7.40;5.03;;;23.90;34.70;;;;;;5076245;28;20020;-51
2021/04/25 05:38:17;;;;;;;7.10;5.22;;;23.90;34.70;;;;;;5082710;28;20068;-55
2021/04/25 05:40:43;;;;;;;6.38;4.78;;;23.90;34.70;;;;;;5085033;28;20410;-51
2021/04/25 05:43:08;;;;;;;6.50;5.07;;;23.90;34.80;;;;;;5075681;28;20088;-53
2021/04/25 05:45:34;;;;;;;6.68;5.20;;;23.90;34.80;;;;;;5083056;28;20483;-54
2021/04/25 05:48:00;;;;;;;6.63;5.00;;;23.80;34.80;;;;;;5098676;28;20140;-53
2021/04/25 05:50:28;;;;;;;7.22;5.00;;;23.90;34.90;;;;;;5081548;28;20048;-55
2021/04/25 05:52:53;;;;;;;6.68;5.18;;;23.80;34.80;;;;;;5065785;28;20493;-57
2021/04/25 05:55:19;;;;;;;6.70;5.03;;;23.80;34.80;;;;;;5083763;28;20106;-51
2021/04/25 05:57:46;;;;;;;6.70;4.90;;;23.80;34.80;;;;;;5085341;28;20160;-53
2021/04/25 06:00:16;;;;;;;6.32;4.63;;;23.80;34.90;;;;;;5077907;28;20090;-56
2021/04/25 06:02:42;;;;;;;5.88;4.45;;;23.80;34.80;;;;;;5081990;28;20020;-54
2021/04/25 06:05:08;;;;;;;6.40;5.10;;;23.80;34.90;;;;;;5084063;28;20020;-54
2021/04/25 06:07:34;;;;;;;5.78;4.50;;;23.80;34.90;;;;;;5076902;28;20029;-52
2021/04/25 06:09:59;;;;;;;6.50;4.90;;;23.70;34.80;;;;;;5083733;28;20040;-48
2021/04/25 06:12:25;;;;;;;6.70;4.97;;;23.70;34.80;;;;;;5084245;28;20059;-55
2021/04/25 06:14:51;;;;;;;6.35;4.70;;;23.70;34.80;;;;;;5083969;28;20055;-52
2021/04/25 06:17:16;;;;;;;5.90;4.47;;;23.70;34.90;;;;;;5086655;28;20371;-54
2021/04/25 06:19:42;;;;;;;5.93;4.63;;;23.70;34.90;;;;;;5087548;28;20115;-52
2021/04/25 06:22:09;;;;;;;5.28;4.18;;;23.80;35.00;;;;;;5087811;28;20207;-53
2021/04/25 06:24:37;;;;;;;6.40;4.55;;;23.70;34.90;;;;;;5086695;28;20039;-53
2021/04/25 06:27:03;;;;;;;5.20;3.70;;;23.70;35.00;;;;;;5089921;28;20024;-54
2021/04/25 06:29:29;;;;;;;5.97;4.20;;;23.70;35.00;;;;;;5083481;28;20020;-53
2021/04/25 06:31:56;;;;;;;5.15;4.00;;;23.70;35.00;;;;;;5088165;28;20063;-52
2021/04/25 06:34:22;;;;;;;5.57;4.20;;;23.70;35.10;;;;;;5087883;28;20040;-52
2021/04/25 06:36:47;;;;;;;6.35;4.50;;;23.70;35.10;;;;;;5081791;28;20028;-51
2021/04/25 06:39:13;;;;;;;5.10;4.00;;;23.70;35.10;;;;;;5087266;28;20035;-55
2021/04/25 06:41:39;;;;;;;6.35;3.85;;;23.70;35.10;;;;;;5075846;28;20443;-53
2021/04/25 06:44:05;;;;;;;4.65;3.80;;;23.60;35.10;;;;;;5087425;28;20106;-55
2021/04/25 06:46:31;;;;;;;5.10;4.07;;;23.70;35.10;;;;;;5085422;28;20020;-52
2021/04/25 06:48:57;;;;;;;5.53;3.90;;;23.60;35.10;;;;;;5086856;28;20145;-58
2021/04/25 06:51:23;;;;;;;4.90;3.85;;;23.60;35.10;;;;;;5083678;28;20035;-52
2021/04/25 06:53:49;;;;;;;5.47;3.88;;;23.60;35.10;;;;;;5083945;28;20395;-53
2021/04/25 06:56:15;;;;;;;5.85;3.95;;;23.60;35.20;;;;;;5083768;28;20133;-57
2021/04/25 06:58:41;;;;;;;5.28;3.80;;;23.60;35.20;;;;;;5086628;28;20482;-49
2021/04/25 07:01:08;;;;;;;5.25;3.53;;;23.60;35.30;;;;;;5081247;28;20056;-51
2021/04/25 07:03:33;;;;;;;5.72;3.85;;;23.60;35.30;;;;;;5077647;28;20032;-52
2021/04/25 07:05:59;;;;;;;5.30;3.80;;;23.60;35.20;;;;;;5087735;28;20108;-51
2021/04/25 07:08:25;;;;;;;5.65;3.67;;;23.60;35.30;;;;;;5083662;28;20025;-55
2021/04/25 07:10:52;;;;;;;5.32;3.45;;;23.60;35.30;;;;;;5088092;28;20058;-53
2021/04/25 07:13:18;;;;;;;5.32;3.55;;;23.50;35.20;;;;;;5088109;28;20391;-53
2021/04/25 07:15:44;;;;;;;6.45;3.72;;;23.50;35.20;;;;;;5086773;28;20034;-54
2021/04/25 07:18:09;;;;;;;7.28;3.83;;;23.60;35.20;;;;;;5087670;28;20028;-57
2021/04/25 07:20:35;;;;;;;5.18;3.58;;;23.50;35.20;;;;;;5087629;28;20031;-57
2021/04/25 07:23:00;;;;;;;5.35;3.53;;;23.50;35.20;;;;;;5087593;28;20448;-55
2021/04/25 07:25:26;;;;;;;5.47;3.22;;;23.50;35.10;;;;;;5086573;28;20046;-58
2021/04/25 07:27:52;;;;;;;5.10;3.35;;;23.50;35.10;;;;;;5087757;28;20510;-55
2021/04/25 07:30:18;;;;;;;4.78;3.30;;;23.50;35.00;;;;;;5076758;28;20024;-57
2021/04/25 07:32:43;;;;;;;5.03;3.47;;;23.50;35.00;;;;;;5087902;28;20040;-55
2021/04/25 07:35:09;;;;;;;5.40;3.53;;;23.50;35.00;;;;;;5086376;28;20028;-54
2021/04/25 07:37:36;;;;;;;4.97;3.40;;;23.50;35.00;;;;;;5086049;28;20162;-56
2021/04/25 07:40:04;;;;;;;5.85;3.30;;;23.40;34.90;;;;;;5084869;28;20115;-54
2021/04/25 07:42:31;;;;;;;4.95;3.42;;;23.50;35.30;;;;;;5088107;28;20031;-51
2021/04/25 07:44:56;;;;;;;4.40;3.15;;;23.50;34.90;;;;;;5080924;28;20062;-51
2021/04/25 07:47:22;;;;;;;4.45;2.95;;;23.50;34.90;;;;;;5069150;28;20074;-53
2021/04/25 07:49:48;;;;;;;4.22;3.05;;;23.50;34.80;;;;;;5087196;28;20077;-55
2021/04/25 07:52:13;;;;;;;4.43;3.10;;;23.50;34.80;;;;;;5086601;28;20396;-53
2021/04/25 07:54:39;;;;;;;4.60;2.92;;;23.50;34.80;;;;;;5076760;28;20039;-53
2021/04/25 07:57:05;;;;;;;4.93;3.10;;;23.40;34.70;;;;;;5082650;28;20111;-49
2021/04/25 07:59:31;;;;;;;4.43;2.90;;;23.40;34.70;;;;;;5081196;28;20043;-54
2021/04/25 08:01:57;;;;;;;5.13;3.30;;;23.40;34.70;;;;;;5073653;28;20033;-53
2021/04/25 08:04:22;;;;;;;4.47;3.08;;;23.40;34.70;;;;;;5076688;28;20430;-52
2021/04/25 08:06:48;;;;;;;4.35;3.17;;;23.40;34.70;;;;;;5078956;28;20047;-52
2021/04/25 08:09:14;;;;;;;4.57;2.90;;;23.40;34.70;;;;;;5079944;28;20032;-50
2021/04/25 08:11:39;;;;;;;5.00;3.10;;;23.40;34.70;;;;;;5077764;28;20753;-56
2021/04/25 08:14:05;;;;;;;4.68;3.20;;;23.40;34.70;;;;;;5085948;28;20057;-54
2021/04/25 08:16:31;;;;;;;4.22;2.83;;;23.40;34.60;;;;;;5085534;28;20446;-56
2021/04/25 08:18:57;;;;;;;5.40;3.20;;;23.40;34.60;;;;;;5084968;28;20131;-50
2021/04/25 08:21:26;;;;;;;4.07;2.70;;;23.40;34.60;;;;;;5082025;28;20099;-55
2021/04/25 08:23:52;;;;;;;4.35;3.08;;;23.40;35.20;;;;;;5084836;28;20048;-53
2021/04/25 08:26:17;;;;;;;4.82;2.90;;;23.40;34.70;;;;;;5084756;28;20032;-52
2021/04/25 08:28:43;;;;;;;4.40;3.25;;;23.40;34.70;;;;;;5081074;28;20032;-53
2021/04/25 08:31:09;;;;;;;4.18;2.80;;;23.40;34.70;;;;;;5082388;28;20482;-51
2021/04/25 08:33:34;;;;;;;3.90;2.45;;;23.40;34.70;;;;;;5080700;28;20559;-55
2021/04/25 08:36:00;;;;;;;4.03;2.80;;;23.40;34.70;;;;;;5076425;28;20024;-55
2021/04/25 08:38:26;;;;;;;4.35;2.70;;;23.40;34.80;;;;;;5065217;28;20052;-55
2021/04/25 08:40:51;;;;;;;4.68;3.00;;;23.40;34.80;;;;;;5076192;28;20027;-55
2021/04/25 08:43:17;;;;;;;4.15;2.90;;;23.40;34.80;;;;;;5085606;28;20689;-55
2021/04/25 08:45:46;;;;;;;3.30;2.30;;;23.30;34.70;;;;;;5079086;28;20028;-50
2021/04/25 08:48:14;;;;;;;4.30;2.72;;;23.30;34.70;;;;;;5080283;28;20047;-55
2021/04/25 08:50:40;;;;;;;4.05;2.80;;;23.30;34.70;;;;;;5078538;28;20444;-55
2021/04/25 08:53:06;;;;;;;5.13;3.00;;;23.30;34.70;;;;;;5071199;28;20451;-55
2021/04/25 08:55:32;;;;;;;4.78;2.70;;;23.40;34.80;;;;;;5075051;28;20146;-53
2021/04/25 08:57:58;;;;;;;3.58;2.60;;;23.40;34.80;;;;;;5076602;28;20455;-56
2021/04/25 09:00:24;;;;;;;4.22;2.50;;;23.30;34.70;;;;;;5081825;28;20036;-54
2021/04/25 09:02:54;;;;;;;4.90;2.40;;;23.30;34.80;;;;;;5076641;28;20391;-53
2021/04/25 09:05:22;;;;;;;3.50;2.50;;;23.30;34.80;;;;;;5076177;28;20060;-55
2021/04/25 09:07:55;;;;;;;4.85;2.60;;;23.30;34.80;;;;;;5070721;28;20031;-54
2021/04/25 09:10:35;;;;;;;3.30;2.35;;;23.30;34.80;;;;;;5077975;28;20505;-52
2021/04/25 09:13:12;;;;;;;4.85;2.75;;;23.30;34.80;;;;;;5080936;28;20032;-55
2021/04/25 09:15:38;;;;;;;3.92;2.78;;;23.30;34.90;;;;;;5065236;28;20036;-52
2021/04/25 09:18:05;;;;;;;4.85;3.03;;;23.30;34.90;;;;;;5083007;28;20020;-57
2021/04/25 09:20:44;;;;;;;5.65;3.38;;;23.30;34.90;;;;;;5078557;28;20419;-56
2021/04/25 09:23:12;;;;;;;6.00;3.65;;;23.30;34.90;;;;;;5066800;28;20032;-59
2021/04/25 09:25:52;;;;;;;7.43;4.50;;;23.30;34.90;;;;;;5076754;28;20044;-54
2021/04/25 09:28:17;;;;;;;8.48;5.50;;;23.30;35.00;;;;;;5081087;28;20028;-56
2021/04/25 09:30:58;;;;;;;9.95;6.18;;;23.30;35.00;;;;;;5071367;28;20494;-54
2021/04/25 09:33:28;;;;;;;10.10;6.65;;;23.30;35.00;;;;;;5069851;28;20745;-53
2021/04/25 09:35:56;;;;;;;10.90;6.90;;;23.30;35.00;;;;;;5073560;28;20037;-55
2021/04/25 09:38:22;;;;;;;16.63;8.40;;;23.30;35.10;;;;;;5081965;28;20042;-57
2021/04/25 09:40:51;;;;;;;13.55;7.40;;;23.30;35.10;;;;;;5082564;28;20081;-53
2021/04/25 09:43:19;;;;;;;13.52;8.43;;;23.30;35.10;;;;;;5080667;28;20102;-59
2021/04/25 09:45:49;;;;;;;13.85;8.45;;;23.30;35.10;;;;;;5082752;28;20116;-54
2021/04/25 09:48:32;;;;;;;12.20;7.55;;;23.30;35.10;;;;;;5077041;28;20063;-56
2021/04/25 09:51:21;;;;;;;12.18;7.70;;;23.30;35.10;;;;;;5072759;28;20032;-57
2021/04/25 09:53:49;;;;;;;15.63;7.70;;;23.30;35.10;;;;;;5078321;28;20417;-56
2021/04/25 09:56:20;;;;;;;10.65;7.07;;;23.30;35.10;;;;;;5080808;28;20039;-57
2021/04/25 09:58:59;;;;;;;11.88;7.88;;;23.30;35.10;;;;;;5085132;28;20076;-54
2021/04/25 10:01:33;;;;;;;11.70;7.57;;;23.30;35.10;;;;;;5077691;28;20040;-55
2021/04/25 10:04:00;;;;;;;12.63;7.57;;;23.40;35.20;;;;;;5084988;28;20547;-54
2021/04/25 10:06:28;;;;;;;11.40;6.75;;;23.30;35.10;;;;;;5084696;28;20164;-54
2021/04/25 10:08:55;;;;;;;14.73;7.83;;;23.30;35.10;;;;;;5083238;28;20021;-55
2021/04/25 10:11:22;;;;;;;12.32;7.07;;;23.40;35.20;;;;;;5080335;28;20029;-54
2021/04/25 10:13:48;;;;;;;10.30;6.82;;;23.30;35.20;;;;;;5075868;28;20075;-58
2021/04/25 10:16:18;;;;;;;10.63;7.28;;;23.30;35.20;;;;;;5083354;28;20437;-55
2021/04/25 10:18:44;;;;;;;10.18;6.55;;;23.30;35.20;;;;;;5078317;28;20089;-58
2021/04/25 10:21:11;;;;;;;9.73;6.47;;;23.40;35.20;;;;;;5072773;28;20446;-54
2021/04/25 10:23:37;;;;;;;10.90;6.40;;;23.30;35.10;;;;;;5076380;28;20028;-56
2021/04/25 10:26:23;;;;;;;10.27;6.43;;;23.40;35.20;;;;;;5079753;28;20431;-55
2021/04/25 10:28:57;;;;;;;9.77;6.57;;;23.40;35.20;;;;;;5071468;28;20137;-51
2021/04/25 10:31:35;;;;;;;12.15;7.22;;;23.30;35.10;;;;;;5078999;28;20059;-54
2021/04/25 10:34:05;;;;;;;11.40;6.67;;;23.40;35.20;;;;;;5084618;28;20128;-51
2021/04/25 10:36:54;;;;;;;10.43;6.20;;;23.40;35.20;;;;;;5081846;28;20035;-53
2021/04/25 10:39:46;;;;;;;10.25;6.30;;;23.30;35.20;;;;;;5081023;28;20024;-55
2021/04/25 10:42:19;;;;;;;10.98;5.90;;;23.30;35.20;;;;;;5083204;28;20570;-56
2021/04/25 10:44:57;;;;;;;9.35;5.95;;;23.40;35.20;;;;;;5076932;28;20028;-52
2021/04/25 10:47:45;;;;;;;8.77;6.03;;;23.30;35.20;;;;;;5080166;28;20055;-53
2021/04/25 10:50:13;;;;;;;8.60;5.30;;;23.30;33.50;;;;;;5077684;28;20020;-58
2021/04/25 10:52:39;;;;;;;5.90;4.03;;;23.30;33.30;;;;;;5079350;28;20040;-54
2021/04/25 10:55:20;;;;;;;7.22;4.53;;;23.30;32.80;;;;;;5081701;28;20290;-59
2021/04/25 10:57:52;;;;;;;8.25;4.35;;;23.30;31.50;;;;;;5079835;28;20090;-53
2021/04/25 11:00:40;;;;;;;7.78;3.80;;;23.20;30.80;;;;;;5080591;28;20046;-57
2021/04/25 11:03:20;;;;;;;5.78;3.42;;;23.20;30.70;;;;;;5076331;28;20062;-54
2021/04/25 11:05:51;;;;;;;5.43;3.40;;;23.20;30.40;;;;;;5079050;28;20036;-54
2021/04/25 11:08:20;;;;;;;5.53;3.00;;;23.10;29.70;;;;;;5081137;28;20067;-57
2021/04/25 11:10:52;;;;;;;4.87;2.90;;;23.10;29.50;;;;;;5079848;28;20446;-59
2021/04/25 11:13:51;;;;;;;3.50;2.40;;;23.10;29.50;;;;;;5081922;28;20352;-59
2021/04/25 11:16:17;;;;;;;4.85;2.60;;;23.00;29.50;;;;;;5084584;28;20032;-58
2021/04/25 11:19:06;;;;;;;4.22;2.35;;;23.00;29.50;;;;;;5084511;28;20088;-56
2021/04/25 11:24:24;;;;;;;4.55;2.63;;;23.00;28.60;;;;;;5083515;28;20043;-59
2021/04/25 11:26:52;;;;;;;3.40;2.20;;;23.00;28.20;;;;;;5085462;28;20138;-60
2021/04/25 11:29:26;;;;;;;3.47;2.47;;;22.90;28.50;;;;;;5081263;28;20035;-57
2021/04/25 11:31:58;;;;;;;3.10;2.08;;;22.90;28.40;;;;;;5079046;28;20169;-52
2021/04/25 11:34:31;;;;;;;3.33;2.10;;;22.90;28.40;;;;;;5083944;28;20028;-54
2021/04/25 11:37:01;;;;;;;3.28;1.98;;;22.90;28.30;;;;;;5083388;28;20047;-58
2021/04/25 11:39:29;;;;;;;3.38;1.90;;;22.90;28.40;;;;;;5091738;28;20120;-59
2021/04/25 11:41:55;;;;;;;3.20;1.80;;;22.90;28.50;;;;;;5085144;28;20645;-54
2021/04/25 11:44:29;;;;;;;3.20;1.73;;;22.90;28.50;;;;;;5092702;28;20061;-56
2021/04/25 11:46:56;;;;;;;2.72;1.70;;;22.90;28.60;;;;;;5088337;28;20785;-59
2021/04/25 11:49:33;;;;;;;3.17;1.75;;;22.90;28.70;;;;;;5093457;28;20441;-56
2021/04/25 11:52:06;;;;;;;2.72;1.50;;;22.90;28.90;;;;;;5091619;28;20115;-54
2021/04/25 11:54:32;;;;;;;2.10;1.40;;;22.90;29.20;;;;;;5095045;28;20027;-54
2021/04/25 11:57:09;;;;;;;2.40;1.55;;;22.90;29.50;;;;;;5101983;28;20063;-57
2021/04/25 11:59:35;;;;;;;2.92;1.40;;;22.90;29.60;;;;;;5087303;28;20741;-56
2021/04/25 12:02:11;;;;;;;2.75;1.40;;;22.90;29.80;;;;;;5085278;28;20120;-52
2021/04/25 12:04:47;;;;;;;1.67;1.10;;;22.90;29.90;;;;;;5086983;28;20380;-54
2021/04/25 12:07:29;;;;;;;2.40;1.10;;;22.90;30.00;;;;;;5084103;28;20028;-55
2021/04/25 12:09:54;;;;;;;2.30;1.30;;;23.00;30.10;;;;;;5087919;28;20039;-57
2021/04/25 12:12:20;;;;;;;3.85;1.30;;;22.90;30.20;;;;;;5082118;28;20032;-59
2021/04/25 12:14:46;;;;;;;3.17;1.65;;;23.00;30.30;;;;;;5088182;28;20051;-54
2021/04/25 12:17:13;;;;;;;2.60;1.20;;;23.00;30.40;;;;;;5088077;28;20063;-58
2021/04/25 12:19:39;;;;;;;2.20;1.10;;;23.00;30.60;;;;;;5088019;28;20035;-54
2021/04/25 12:22:05;;;;;;;2.25;1.33;;;23.00;30.60;;;;;;5087114;28;20498;-57
2021/04/25 12:24:32;;;;;;;3.00;1.40;;;23.00;30.70;;;;;;5086913;28;20032;-57
2021/04/25 12:26:57;;;;;;;2.20;1.20;;;23.00;30.80;;;;;;5088557;28;20519;-54
2021/04/25 12:29:34;;;;;;;2.55;1.30;;;23.00;30.90;;;;;;5088593;28;20110;-51
2021/04/25 12:32:00;;;;;;;2.45;1.20;;;23.00;31.00;;;;;;5086682;28;20093;-55
2021/04/25 12:34:31;;;;;;;2.38;1.33;;;23.00;31.10;;;;;;5075654;28;20025;-53
2021/04/25 12:36:59;;;;;;;2.20;1.20;;;23.00;31.20;;;;;;5077312;28;20055;-57
2021/04/25 12:39:39;;;;;;;2.25;1.20;;;23.00;31.20;;;;;;5087357;28;20028;-57
2021/04/25 12:42:05;;;;;;;2.55;1.30;;;23.00;31.30;;;;;;5081221;28;20074;-55
2021/04/25 12:44:36;;;;;;;2.00;1.23;;;23.00;31.30;;;;;;5088320;28;20032;-56
2021/04/25 12:47:04;;;;;;;3.65;1.30;;;23.00;31.40;;;;;;5087586;28;20023;-56
2021/04/25 12:49:37;;;;;;;2.00;1.10;;;23.00;31.40;;;;;;5086381;28;20100;-53